Terminal Aerodrome Forecast
Issued by NWS

Home | Current Version | Previous Version | Text Only | Print | Product List | Glossary On
Versions: 1 2 3 4 5 6 7 8 9 10 11 12 13 14 15 16 17 18 19 20 21 22
231
FTUS44 KMAF 291227 AAA
TAFPEQ
TAF AMD
KPEQ 291227Z 2912/3012 31019G26KT P6SM BKN200
     FM291600 28014KT P6SM SCT040 BKN100
     FM291900 25014G20KT P6SM SCT100
     FM292300 33019G27KT P6SM SCT040=

USA.gov is the U.S. government's official web portal to all federal, state and local government web resources and services.